Time;durP1;ratioP1;P1;durP2;ratioP2;P2;SDS_P1;SDS_P2;PMS_P1;PMS_P2;Temp;Humidity;BMP_temperature;BMP_pressure;BME280_temperature;BME280_humidity;BME280_pressure;Samples;Min_cycle;Max_cycle;Signal;HPM_P1;HPM_P2
2022/08/14 00:01:02;;;;;;;8.53;8.03;;;;;;;;;;4937101;29;20438;-91
2022/08/14 00:03:30;;;;;;;8.90;8.40;;;;;;;;;;4938752;28;20434;-92
2022/08/14 00:05:57;;;;;;;8.40;8.00;;;;;;;;;;4937605;29;20517;-93
2022/08/14 00:08:22;;;;;;;8.20;7.80;;;;;;;;;;4938536;29;20488;-93
2022/08/14 00:10:49;;;;;;;8.63;7.97;;;;;;;;;;4936983;29;20442;-92
2022/08/14 00:13:15;;;;;;;8.60;8.10;;;;;;;;;;4977988;28;20484;-91
2022/08/14 00:15:43;;;;;;;8.60;8.10;;;;;;;;;;4962627;28;20453;-92
2022/08/14 00:18:10;;;;;;;9.80;8.93;;;;;;;;;;4977325;28;20428;-93
2022/08/14 00:20:37;;;;;;;10.20;8.43;;;;;;;;;;4969303;28;20438;-93
2022/08/14 00:23:04;;;;;;;9.30;8.87;;;;;;;;;;4963443;28;20492;-93
2022/08/14 00:25:29;;;;;;;9.63;8.90;;;;;;;;;;4981667;28;20433;-92
2022/08/14 00:27:56;;;;;;;8.27;7.97;;;;;;;;;;4987061;28;20601;-92
2022/08/14 00:30:22;;;;;;;8.40;8.00;;;;;;;;;;4975394;28;20428;-92
2022/08/14 00:32:48;;;;;;;8.77;8.27;;;;;;;;;;4957097;28;20525;-92
2022/08/14 00:35:14;;;;;;;8.77;8.37;;;;;;;;;;4992176;28;20467;-92
2022/08/14 00:37:41;;;;;;;13.70;8.30;;;;;;;;;;4956424;28;20493;-92
2022/08/14 00:40:11;;;;;;;8.63;8.23;;;;;;;;;;4969351;28;20445;-92
2022/08/14 00:42:37;;;;;;;15.57;8.27;;;;;;;;;;4967589;28;21021;-92
2022/08/14 00:45:04;;;;;;;10.13;9.47;;;;;;;;;;4967823;28;20492;-92
2022/08/14 00:47:30;;;;;;;9.00;8.40;;;;;;;;;;4975821;28;20950;-92
2022/08/14 00:49:57;;;;;;;8.37;7.90;;;;;;;;;;4966348;28;20437;-91
2022/08/14 00:52:24;;;;;;;7.77;7.37;;;;;;;;;;4973662;28;20433;-92
2022/08/14 00:54:53;;;;;;;8.63;8.23;;;;;;;;;;4979649;28;20485;-91
2022/08/14 00:57:22;;;;;;;8.43;8.00;;;;;;;;;;4981442;28;20523;-91
2022/08/14 00:59:49;;;;;;;9.13;8.63;;;;;;;;;;4981425;28;20516;-93
2022/08/14 01:02:17;;;;;;;9.50;9.10;;;;;;;;;;4969451;28;20440;-92
2022/08/14 01:04:43;;;;;;;9.00;8.53;;;;;;;;;;4964472;28;20445;-92
2022/08/14 01:07:09;;;;;;;10.87;9.10;;;;;;;;;;4971874;28;20434;-92
2022/08/14 01:09:36;;;;;;;9.27;8.33;;;;;;;;;;4996716;28;20429;-92
2022/08/14 01:12:03;;;;;;;8.30;7.90;;;;;;;;;;4975608;28;20477;-93
2022/08/14 01:14:29;;;;;;;8.80;8.30;;;;;;;;;;4994218;28;20461;-92
2022/08/14 01:16:55;;;;;;;7.97;7.37;;;;;;;;;;4980958;28;20879;-90
2022/08/14 01:22:06;;;;;;;9.30;8.80;;;;;;;;;;4960810;28;20988;-91
2022/08/14 01:24:35;;;;;;;9.73;9.13;;;;;;;;;;4977473;28;20425;-91
2022/08/14 01:27:04;;;;;;;9.20;8.70;;;;;;;;;;4976222;28;20452;-92
2022/08/14 01:29:34;;;;;;;9.00;8.60;;;;;;;;;;4978434;28;20429;-91
2022/08/14 01:32:03;;;;;;;8.70;8.37;;;;;;;;;;4961229;28;20825;-92
2022/08/14 01:34:31;;;;;;;10.47;9.53;;;;;;;;;;4979739;28;20942;-92
2022/08/14 01:36:58;;;;;;;9.27;8.77;;;;;;;;;;4958709;28;20519;-91
2022/08/14 01:45:31;;;;;;;9.20;8.77;;;;;;;;;;4956800;28;20485;-91
2022/08/14 01:47:57;;;;;;;8.93;8.53;;;;;;;;;;4957681;28;21103;-91
2022/08/14 01:50:23;;;;;;;8.70;8.40;;;;;;;;;;4967240;28;20445;-92
2022/08/14 01:52:49;;;;;;;9.00;8.37;;;;;;;;;;4974768;28;20499;-91
2022/08/14 01:55:16;;;;;;;9.90;9.20;;;;;;;;;;4973240;28;20512;-91
2022/08/14 01:57:44;;;;;;;9.80;9.00;;;;;;;;;;4975389;28;20469;-91
2022/08/14 02:00:15;;;;;;;9.17;8.30;;;;;;;;;;4959282;28;20446;-90
2022/08/14 02:02:41;;;;;;;9.07;8.57;;;;;;;;;;4957940;28;20448;-89
2022/08/14 02:05:14;;;;;;;9.20;8.70;;;;;;;;;;4976496;28;20885;-91
2022/08/14 02:07:42;;;;;;;9.77;9.27;;;;;;;;;;4961146;28;20497;-92
2022/08/14 02:10:09;;;;;;;8.80;8.40;;;;;;;;;;4978834;28;20441;-91
2022/08/14 02:12:35;;;;;;;9.20;8.70;;;;;;;;;;4970842;28;20532;-92
2022/08/14 02:15:04;;;;;;;9.43;8.83;;;;;;;;;;4973162;28;20548;-92
2022/08/14 02:17:33;;;;;;;9.40;8.70;;;;;;;;;;4972733;28;20472;-90
2022/08/14 02:20:02;;;;;;;9.37;8.80;;;;;;;;;;4989862;28;20433;-91
2022/08/14 02:22:28;;;;;;;9.17;8.67;;;;;;;;;;4974700;28;20428;-91
2022/08/14 02:24:54;;;;;;;10.70;9.53;;;;;;;;;;4977736;28;20563;-92
2022/08/14 02:27:21;;;;;;;9.17;8.77;;;;;;;;;;4982620;28;20436;-92
2022/08/14 02:29:47;;;;;;;10.13;9.53;;;;;;;;;;4969489;28;20433;-92
2022/08/14 02:32:16;;;;;;;9.73;9.13;;;;;;;;;;4976213;28;20429;-92
2022/08/14 02:34:43;;;;;;;10.57;9.97;;;;;;;;;;4958476;28;20469;-92
2022/08/14 02:37:10;;;;;;;10.60;10.00;;;;;;;;;;4957032;28;21005;-92
2022/08/14 02:39:37;;;;;;;11.03;10.43;;;;;;;;;;4976426;28;20436;-92
2022/08/14 02:42:04;;;;;;;10.80;10.20;;;;;;;;;;4966736;28;20432;-92
2022/08/14 02:44:30;;;;;;;11.30;10.60;;;;;;;;;;5001086;28;20491;-93
2022/08/14 02:46:56;;;;;;;9.93;9.33;;;;;;;;;;4963370;28;20469;-92
2022/08/14 02:49:26;;;;;;;9.63;9.13;;;;;;;;;;4982232;28;20448;-91
2022/08/14 02:51:52;;;;;;;9.63;9.00;;;;;;;;;;4973016;28;20544;-91
2022/08/14 02:54:18;;;;;;;10.57;9.97;;;;;;;;;;4961652;28;20413;-92
2022/08/14 02:56:44;;;;;;;9.93;9.30;;;;;;;;;;4972342;28;20520;-92
2022/08/14 02:59:12;;;;;;;9.40;8.77;;;;;;;;;;4961234;28;20643;-92
2022/08/14 03:01:39;;;;;;;9.43;9.00;;;;;;;;;;4977720;28;20438;-91
2022/08/14 03:04:06;;;;;;;10.40;9.80;;;;;;;;;;4956274;28;20444;-92
2022/08/14 03:06:32;;;;;;;10.17;9.67;;;;;;;;;;4975477;28;20478;-93
2022/08/14 03:08:58;;;;;;;11.80;10.70;;;;;;;;;;4980529;28;20417;-91
2022/08/14 03:11:25;;;;;;;12.70;11.80;;;;;;;;;;4963176;28;20762;-92
2022/08/14 03:13:51;;;;;;;13.73;12.63;;;;;;;;;;4994196;28;20410;-91
2022/08/14 03:16:19;;;;;;;14.70;13.30;;;;;;;;;;4975391;28;20443;-92
2022/08/14 03:18:46;;;;;;;13.40;12.47;;;;;;;;;;4971985;28;20471;-92
2022/08/14 03:21:14;;;;;;;14.73;13.73;;;;;;;;;;4995416;28;20417;-92
2022/08/14 03:23:40;;;;;;;16.43;15.30;;;;;;;;;;4987892;28;20417;-91
2022/08/14 03:26:08;;;;;;;15.57;14.57;;;;;;;;;;4991076;28;20432;-92
2022/08/14 03:28:34;;;;;;;14.90;13.73;;;;;;;;;;5008435;28;20460;-92
2022/08/14 03:31:00;;;;;;;15.00;14.00;;;;;;;;;;5001455;28;20444;-91
2022/08/14 03:33:26;;;;;;;15.17;13.80;;;;;;;;;;4994933;28;20452;-92
2022/08/14 03:35:53;;;;;;;14.27;13.37;;;;;;;;;;4979549;28;20418;-92
2022/08/14 03:38:19;;;;;;;16.90;15.23;;;;;;;;;;4973536;28;20477;-91
2022/08/14 03:40:49;;;;;;;14.83;13.63;;;;;;;;;;4986007;28;20445;-92
2022/08/14 03:43:15;;;;;;;14.07;13.03;;;;;;;;;;4984887;28;20974;-92
2022/08/14 03:45:43;;;;;;;14.03;13.13;;;;;;;;;;4959136;28;20816;-92
2022/08/14 03:48:19;;;;;;;13.83;12.83;;;;;;;;;;4978305;28;20457;-92
2022/08/14 03:50:46;;;;;;;13.13;12.10;;;;;;;;;;4957242;29;20409;-92
2022/08/14 03:53:12;;;;;;;12.40;11.63;;;;;;;;;;4962939;28;20437;-91
2022/08/14 03:55:39;;;;;;;13.10;12.20;;;;;;;;;;4971780;28;20445;-91
2022/08/14 03:58:06;;;;;;;11.10;10.30;;;;;;;;;;4969756;28;20475;-92
2022/08/14 04:00:32;;;;;;;12.40;11.60;;;;;;;;;;4972904;28;20433;-92
2022/08/14 04:02:58;;;;;;;12.23;11.53;;;;;;;;;;4957960;28;20448;-92
2022/08/14 04:05:27;;;;;;;12.37;11.47;;;;;;;;;;4970672;28;20445;-93
2022/08/14 04:07:53;;;;;;;11.30;10.70;;;;;;;;;;4960449;28;20433;-90
2022/08/14 04:10:20;;;;;;;11.97;11.27;;;;;;;;;;4959312;28;20987;-92
2022/08/14 04:12:46;;;;;;;11.30;10.50;;;;;;;;;;4960286;28;20548;-93
2022/08/14 04:15:13;;;;;;;12.30;11.53;;;;;;;;;;4964340;28;20472;-93
2022/08/14 04:17:42;;;;;;;13.17;12.37;;;;;;;;;;4959734;28;20487;-93
2022/08/14 04:20:08;;;;;;;14.37;13.27;;;;;;;;;;4971898;28;20951;-93
2022/08/14 04:22:35;;;;;;;14.70;13.73;;;;;;;;;;4970047;28;21046;-92
2022/08/14 04:25:02;;;;;;;14.20;13.00;;;;;;;;;;4959937;28;20441;-92
2022/08/14 04:27:28;;;;;;;14.33;13.43;;;;;;;;;;4959978;28;20436;-92
2022/08/14 04:29:56;;;;;;;15.60;14.50;;;;;;;;;;4981988;28;20436;-93
2022/08/14 04:32:24;;;;;;;13.93;13.03;;;;;;;;;;4977335;28;20445;-92
2022/08/14 04:34:50;;;;;;;12.83;11.97;;;;;;;;;;4981580;28;20444;-93
2022/08/14 04:45:39;;;;;;;14.27;13.07;;;;;;;;;;4981018;28;20479;-93
2022/08/14 04:48:12;;;;;;;12.90;11.90;;;;;;;;;;4976295;28;20494;-93
2022/08/14 04:50:39;;;;;;;12.13;11.33;;;;;;;;;;4964288;29;20454;-93
2022/08/14 04:53:05;;;;;;;13.33;12.33;;;;;;;;;;5001045;28;20452;-90
2022/08/14 04:55:32;;;;;;;13.03;11.70;;;;;;;;;;4996617;28;20456;-93
2022/08/14 04:57:58;;;;;;;13.43;12.60;;;;;;;;;;4998174;28;21021;-92
2022/08/14 05:00:26;;;;;;;12.80;11.90;;;;;;;;;;4987281;28;20536;-90
2022/08/14 05:02:52;;;;;;;12.10;11.20;;;;;;;;;;4971817;28;20460;-92
2022/08/14 05:05:19;;;;;;;12.83;12.03;;;;;;;;;;4963955;28;20460;-91
2022/08/14 05:07:46;;;;;;;13.23;12.17;;;;;;;;;;4977301;28;20452;-90
2022/08/14 05:10:12;;;;;;;13.23;12.43;;;;;;;;;;4960660;28;20814;-91
2022/08/14 05:12:38;;;;;;;12.10;11.20;;;;;;;;;;4974606;28;20461;-91
2022/08/14 05:15:06;;;;;;;13.67;12.60;;;;;;;;;;4968353;28;20513;-91
2022/08/14 05:17:32;;;;;;;11.90;11.10;;;;;;;;;;4276328;28;10000638;-91
2022/08/14 05:20:01;;;;;;;13.47;12.27;;;;;;;;;;4957505;28;20432;-91
2022/08/14 05:22:27;;;;;;;12.33;11.43;;;;;;;;;;4961191;28;20496;-91
2022/08/14 05:24:53;;;;;;;11.73;11.00;;;;;;;;;;4952899;28;20441;-90
2022/08/14 05:27:19;;;;;;;12.37;11.57;;;;;;;;;;4963367;28;20477;-88
2022/08/14 05:29:47;;;;;;;13.03;12.23;;;;;;;;;;4975492;28;20397;-92
2022/08/14 05:32:14;;;;;;;11.77;11.10;;;;;;;;;;4958116;28;20444;-90
2022/08/14 05:34:40;;;;;;;11.80;10.83;;;;;;;;;;4962312;28;20460;-91
2022/08/14 05:37:08;;;;;;;11.50;10.80;;;;;;;;;;4971919;28;20479;-91
2022/08/14 05:39:34;;;;;;;11.90;11.30;;;;;;;;;;4970927;28;20457;-92
2022/08/14 05:42:00;;;;;;;14.60;11.70;;;;;;;;;;4971476;28;20500;-90
2022/08/14 05:44:26;;;;;;;12.50;11.80;;;;;;;;;;4964094;28;20441;-91
2022/08/14 05:46:52;;;;;;;12.13;11.10;;;;;;;;;;4963373;28;20777;-91
2022/08/14 05:49:19;;;;;;;12.33;11.10;;;;;;;;;;4980858;28;20497;-90
2022/08/14 05:51:46;;;;;;;14.40;11.70;;;;;;;;;;4960797;28;20434;-91
2022/08/14 05:54:12;;;;;;;11.13;10.53;;;;;;;;;;4974488;28;20936;-90
2022/08/14 05:56:38;;;;;;;10.80;10.30;;;;;;;;;;4957910;28;20456;-90
2022/08/14 05:59:04;;;;;;;11.23;10.73;;;;;;;;;;4956317;28;20422;-91
2022/08/14 06:01:30;;;;;;;12.03;11.33;;;;;;;;;;4960753;28;20432;-91
2022/08/14 06:03:56;;;;;;;10.90;10.20;;;;;;;;;;4955447;28;20459;-92
2022/08/14 06:06:22;;;;;;;10.80;10.20;;;;;;;;;;4957088;28;20477;-91
2022/08/14 06:08:48;;;;;;;11.47;10.73;;;;;;;;;;4957318;28;20453;-90
2022/08/14 06:11:17;;;;;;;10.57;10.07;;;;;;;;;;4948110;28;20437;-90
2022/08/14 06:13:43;;;;;;;11.47;10.80;;;;;;;;;;4950871;29;20719;-91
2022/08/14 06:16:10;;;;;;;9.70;9.23;;;;;;;;;;4953060;28;20521;-91
2022/08/14 06:18:35;;;;;;;10.27;9.80;;;;;;;;;;4950114;28;20478;-90
2022/08/14 06:21:05;;;;;;;10.50;10.00;;;;;;;;;;4952714;28;20441;-90
2022/08/14 06:23:31;;;;;;;11.20;10.70;;;;;;;;;;4958557;28;20445;-91
2022/08/14 06:25:57;;;;;;;11.20;10.43;;;;;;;;;;4975524;28;20440;-92
2022/08/14 06:28:24;;;;;;;9.53;8.97;;;;;;;;;;4955979;28;20989;-90
2022/08/14 06:30:51;;;;;;;12.80;10.27;;;;;;;;;;4975678;28;20424;-90
2022/08/14 06:33:18;;;;;;;10.80;10.07;;;;;;;;;;4977666;28;20493;-90
2022/08/14 06:35:44;;;;;;;10.13;9.63;;;;;;;;;;4975325;28;20432;-90
2022/08/14 06:38:14;;;;;;;10.30;9.80;;;;;;;;;;4956239;28;20622;-90
2022/08/14 06:40:40;;;;;;;10.57;9.87;;;;;;;;;;4938336;29;20434;-90
2022/08/14 06:43:08;;;;;;;10.27;9.67;;;;;;;;;;4977430;28;20433;-89
2022/08/14 06:45:35;;;;;;;10.30;9.80;;;;;;;;;;4984602;28;20436;-90
2022/08/14 06:48:22;;;;;;;10.77;10.13;;;;;;;;;;4974220;28;20426;-92
2022/08/14 06:50:49;;;;;;;10.60;10.07;;;;;;;;;;4942787;29;20438;-91
2022/08/14 06:53:22;;;;;;;10.80;10.30;;;;;;;;;;4975250;28;20440;-90
2022/08/14 06:55:49;;;;;;;10.37;9.63;;;;;;;;;;4984704;28;20440;-91
2022/08/14 06:58:17;;;;;;;11.47;10.87;;;;;;;;;;4969944;28;20536;-91
2022/08/14 07:06:14;;;;;;;10.23;9.70;;;;;;;;;;4960654;29;21080;-92
2022/08/14 07:08:50;;;;;;;10.60;9.80;;;;;;;;;;4977968;28;20477;-88
2022/08/14 07:11:16;;;;;;;10.67;10.17;;;;;;;;;;4983755;28;20429;-91
2022/08/14 07:13:43;;;;;;;9.50;9.20;;;;;;;;;;4968705;28;20788;-92
2022/08/14 07:16:11;;;;;;;10.00;9.50;;;;;;;;;;4963488;28;20425;-92
2022/08/14 07:18:40;;;;;;;10.07;9.47;;;;;;;;;;4963599;28;20473;-91
2022/08/14 07:21:08;;;;;;;9.57;8.87;;;;;;;;;;4976283;28;20486;-90
2022/08/14 07:23:41;;;;;;;10.90;10.30;;;;;;;;;;4950043;28;20495;-90
2022/08/14 07:26:09;;;;;;;9.07;8.80;;;;;;;;;;4975922;28;20444;-92
2022/08/14 07:28:37;;;;;;;10.50;10.10;;;;;;;;;;4944301;28;20469;-91
2022/08/14 07:31:05;;;;;;;9.53;9.13;;;;;;;;;;4976355;28;20432;-91
2022/08/14 07:33:33;;;;;;;8.67;8.30;;;;;;;;;;4955921;28;20457;-92
2022/08/14 07:36:05;;;;;;;8.83;8.63;;;;;;;;;;4975990;28;20447;-92
2022/08/14 07:38:31;;;;;;;9.23;8.83;;;;;;;;;;4949499;28;20409;-92
2022/08/14 07:40:58;;;;;;;13.47;12.50;;;;;;;;;;4989503;28;20971;-92
2022/08/14 07:43:29;;;;;;;9.60;8.97;;;;;;;;;;4992180;28;20436;-90
2022/08/14 07:45:55;;;;;;;8.77;8.47;;;;;;;;;;4939219;29;20429;-90
2022/08/14 07:48:22;;;;;;;9.23;8.90;;;;;;;;;;4961658;28;20476;-92
2022/08/14 07:50:49;;;;;;;9.97;9.53;;;;;;;;;;4975612;28;20512;-92
2022/08/14 07:53:16;;;;;;;8.13;7.70;;;;;;;;;;4965516;28;21035;-90
2022/08/14 07:55:48;;;;;;;8.80;8.37;;;;;;;;;;4979432;28;20428;-91
2022/08/14 07:58:18;;;;;;;8.43;8.23;;;;;;;;;;4958054;28;20436;-91
2022/08/14 08:00:45;;;;;;;10.00;9.57;;;;;;;;;;4954707;29;20422;-91
2022/08/14 08:03:11;;;;;;;9.07;8.67;;;;;;;;;;4974205;28;20576;-91
2022/08/14 08:05:38;;;;;;;9.30;8.90;;;;;;;;;;4956309;28;20429;-92
2022/08/14 08:08:05;;;;;;;9.70;9.17;;;;;;;;;;4974370;28;20464;-91
2022/08/14 08:10:32;;;;;;;10.30;9.60;;;;;;;;;;4957496;28;20545;-90
2022/08/14 08:13:01;;;;;;;12.10;11.40;;;;;;;;;;4976717;28;20478;-92
2022/08/14 08:15:27;;;;;;;9.57;9.17;;;;;;;;;;4970988;28;20432;-92
2022/08/14 08:17:54;;;;;;;8.50;8.10;;;;;;;;;;4983923;28;20421;-92
2022/08/14 08:20:25;;;;;;;9.60;9.00;;;;;;;;;;4945763;29;20453;-92
2022/08/14 08:22:57;;;;;;;8.33;8.10;;;;;;;;;;4972589;28;20954;-91
2022/08/14 08:25:28;;;;;;;9.00;8.30;;;;;;;;;;4955800;29;20422;-90
2022/08/14 08:27:59;;;;;;;8.30;8.10;;;;;;;;;;4973461;28;20510;-91
2022/08/14 08:30:25;;;;;;;8.90;8.67;;;;;;;;;;4961464;28;20497;-90
2022/08/14 08:32:52;;;;;;;8.20;8.00;;;;;;;;;;4967931;28;20987;-91
2022/08/14 08:35:40;;;;;;;9.00;8.60;;;;;;;;;;4957337;28;20425;-88
2022/08/14 08:38:08;;;;;;;8.07;7.60;;;;;;;;;;4964167;28;20455;-89
2022/08/14 08:40:36;;;;;;;9.77;9.00;;;;;;;;;;4956633;28;20437;-90
2022/08/14 08:43:20;;;;;;;8.13;7.93;;;;;;;;;;4691639;28;10000538;-90
2022/08/14 08:45:53;;;;;;;8.60;8.20;;;;;;;;;;4976216;28;20795;-89
2022/08/14 08:48:19;;;;;;;8.93;8.50;;;;;;;;;;4952736;28;20524;-90
2022/08/14 08:50:45;;;;;;;8.63;8.33;;;;;;;;;;4964034;28;20460;-88
2022/08/14 08:53:11;;;;;;;8.43;8.03;;;;;;;;;;4953329;28;20530;-91
2022/08/14 08:55:42;;;;;;;9.00;8.37;;;;;;;;;;4958481;28;20441;-88
2022/08/14 08:58:12;;;;;;;8.43;8.00;;;;;;;;;;4953737;28;20441;-90
2022/08/14 09:00:39;;;;;;;8.20;7.83;;;;;;;;;;4948401;28;20442;-90
2022/08/14 09:03:10;;;;;;;8.80;8.50;;;;;;;;;;4945294;28;21046;-90
2022/08/14 09:05:37;;;;;;;8.33;7.80;;;;;;;;;;4957465;28;20469;-90
2022/08/14 09:08:17;;;;;;;8.90;8.40;;;;;;;;;;4948822;28;20566;-91
2022/08/14 09:10:43;;;;;;;7.80;7.60;;;;;;;;;;4955624;28;20437;-91
2022/08/14 09:13:11;;;;;;;7.60;7.20;;;;;;;;;;4961869;28;20468;-91
2022/08/14 09:15:38;;;;;;;8.50;8.00;;;;;;;;;;4955818;28;20432;-91
2022/08/14 09:18:04;;;;;;;8.50;8.20;;;;;;;;;;4977596;28;20428;-90
2022/08/14 09:20:30;;;;;;;7.50;7.20;;;;;;;;;;4961126;28;20448;-91
2022/08/14 09:22:59;;;;;;;7.73;7.60;;;;;;;;;;4967216;28;20825;-89
2022/08/14 09:25:25;;;;;;;8.60;8.20;;;;;;;;;;4961244;28;20449;-89
2022/08/14 09:27:52;;;;;;;7.27;6.90;;;;;;;;;;4962661;28;20621;-89
2022/08/14 09:30:18;;;;;;;7.40;7.20;;;;;;;;;;4963881;28;20974;-89
2022/08/14 09:32:51;;;;;;;6.70;6.50;;;;;;;;;;4975741;28;20496;-90
2022/08/14 09:35:24;;;;;;;6.60;6.40;;;;;;;;;;4946995;28;20520;-89
2022/08/14 09:38:10;;;;;;;6.10;5.90;;;;;;;;;;4951695;28;20437;-89
2022/08/14 09:41:06;;;;;;;6.20;5.80;;;;;;;;;;4955893;28;20421;-90
2022/08/14 09:43:41;;;;;;;6.57;6.43;;;;;;;;;;4900548;29;20783;-91
2022/08/14 09:46:08;;;;;;;5.70;5.50;;;;;;;;;;4949916;28;20408;-90
2022/08/14 09:48:36;;;;;;;7.17;7.07;;;;;;;;;;4955290;28;20674;-91
2022/08/14 09:51:04;;;;;;;6.70;6.50;;;;;;;;;;4960376;28;20453;-90
2022/08/14 09:53:40;;;;;;;7.37;6.80;;;;;;;;;;4970367;28;20445;-91
2022/08/14 09:56:07;;;;;;;7.07;6.87;;;;;;;;;;4945389;28;20873;-90
2022/08/14 09:58:37;;;;;;;7.20;7.00;;;;;;;;;;4964473;28;20440;-91
2022/08/14 10:01:09;;;;;;;6.50;6.40;;;;;;;;;;4974748;28;20970;-90
2022/08/14 10:03:37;;;;;;;7.63;7.03;;;;;;;;;;4964755;28;20453;-90
2022/08/14 10:06:14;;;;;;;6.93;6.50;;;;;;;;;;4610148;28;9999958;-92
2022/08/14 10:08:45;;;;;;;6.20;6.10;;;;;;;;;;4954313;28;20269;-90
2022/08/14 10:11:28;;;;;;;5.83;5.83;;;;;;;;;;4956477;28;20457;-90
2022/08/14 10:13:57;;;;;;;6.60;6.40;;;;;;;;;;4945711;28;20445;-90
2022/08/14 10:16:28;;;;;;;6.77;6.13;;;;;;;;;;4962620;28;20449;-91
2022/08/14 10:19:05;;;;;;;6.93;6.73;;;;;;;;;;4965943;28;20433;-90
2022/08/14 10:21:32;;;;;;;6.63;6.40;;;;;;;;;;4955740;28;20444;-89
2022/08/14 10:23:58;;;;;;;6.50;6.40;;;;;;;;;;4954580;28;20463;-90
2022/08/14 10:26:24;;;;;;;7.57;7.20;;;;;;;;;;4980225;28;20528;-90
2022/08/14 10:28:51;;;;;;;6.73;6.53;;;;;;;;;;4970822;28;20480;-90
2022/08/14 10:31:17;;;;;;;6.87;6.57;;;;;;;;;;4985334;28;20449;-87
2022/08/14 10:33:45;;;;;;;7.43;7.23;;;;;;;;;;4981339;28;20476;-89
2022/08/14 10:36:11;;;;;;;6.60;6.40;;;;;;;;;;4968925;28;20463;-90
2022/08/14 10:38:37;;;;;;;7.20;6.80;;;;;;;;;;4976239;28;20856;-89
2022/08/14 10:41:11;;;;;;;7.30;7.10;;;;;;;;;;4978739;28;20781;-90
2022/08/14 10:43:38;;;;;;;7.93;7.63;;;;;;;;;;4971417;28;20452;-91
2022/08/14 10:46:11;;;;;;;7.30;7.10;;;;;;;;;;4983820;28;20446;-92
2022/08/14 10:48:37;;;;;;;7.20;6.90;;;;;;;;;;4973670;28;20469;-90
2022/08/14 10:51:03;;;;;;;6.63;6.50;;;;;;;;;;4973211;28;20998;-89
2022/08/14 10:53:31;;;;;;;7.17;6.93;;;;;;;;;;4982811;28;20447;-87
2022/08/14 10:55:58;;;;;;;6.93;6.73;;;;;;;;;;4981481;28;20444;-88
2022/08/14 10:58:29;;;;;;;6.97;6.87;;;;;;;;;;4975981;28;21084;-90
2022/08/14 11:01:06;;;;;;;6.57;6.30;;;;;;;;;;4972151;28;20433;-92
2022/08/14 11:03:44;;;;;;;7.40;6.83;;;;;;;;;;4962254;28;20445;-91
2022/08/14 11:06:15;;;;;;;8.40;8.10;;;;;;;;;;4966472;28;20430;-92
2022/08/14 11:08:50;;;;;;;7.40;7.20;;;;;;;;;;4970783;28;20479;-90
2022/08/14 11:11:26;;;;;;;6.70;6.60;;;;;;;;;;4942840;28;20436;-90
2022/08/14 11:13:56;;;;;;;8.00;7.60;;;;;;;;;;4980087;28;20447;-90
2022/08/14 11:16:23;;;;;;;7.70;7.37;;;;;;;;;;4958654;28;20437;-91
2022/08/14 11:18:52;;;;;;;7.23;6.90;;;;;;;;;;4977481;28;20449;-90
2022/08/14 11:21:21;;;;;;;6.83;6.53;;;;;;;;;;4976105;28;20444;-91
2022/08/14 11:23:48;;;;;;;8.13;7.60;;;;;;;;;;4963000;28;20449;-90
2022/08/14 11:26:17;;;;;;;6.43;6.30;;;;;;;;;;4974842;28;20444;-90
2022/08/14 11:28:45;;;;;;;6.70;6.57;;;;;;;;;;4978326;28;20473;-88
2022/08/14 11:31:15;;;;;;;7.00;6.80;;;;;;;;;;4968177;28;20481;-88
2022/08/14 11:33:53;;;;;;;6.97;6.77;;;;;;;;;;4976203;28;21119;-89
2022/08/14 11:36:22;;;;;;;7.90;7.23;;;;;;;;;;4945471;28;20469;-88
2022/08/14 11:38:48;;;;;;;7.77;7.57;;;;;;;;;;4968035;28;20509;-89
2022/08/14 11:41:15;;;;;;;7.60;7.40;;;;;;;;;;4963974;28;20472;-89
2022/08/14 11:43:45;;;;;;;8.02;7.72;;;;;;;;;;4617068;28;10001327;-88
2022/08/14 11:46:12;;;;;;;7.13;7.03;;;;;;;;;;4963578;28;20186;-89
2022/08/14 11:48:45;;;;;;;7.07;6.90;;;;;;;;;;4955350;28;20477;-89
2022/08/14 11:51:13;;;;;;;7.23;7.03;;;;;;;;;;4964406;28;20457;-88
2022/08/14 11:53:42;;;;;;;8.13;7.73;;;;;;;;;;4970709;28;20468;-88
2022/08/14 11:56:08;;;;;;;6.93;6.80;;;;;;;;;;4951597;28;20425;-88
2022/08/14 11:58:35;;;;;;;7.50;7.10;;;;;;;;;;4982179;28;20788;-90
2022/08/14 12:01:05;;;;;;;7.30;7.20;;;;;;;;;;4960158;28;20417;-89
2022/08/14 12:03:47;;;;;;;9.40;8.87;;;;;;;;;;4955424;28;20590;-89
2022/08/14 12:06:14;;;;;;;6.93;6.83;;;;;;;;;;4979942;28;20467;-88
2022/08/14 12:08:41;;;;;;;7.60;7.30;;;;;;;;;;4956204;28;20477;-88
2022/08/14 12:11:09;;;;;;;6.87;6.40;;;;;;;;;;4945358;28;20426;-88
2022/08/14 12:13:35;;;;;;;9.47;9.07;;;;;;;;;;4954307;28;20593;-87
2022/08/14 12:16:02;;;;;;;7.73;7.53;;;;;;;;;;4946655;28;20432;-89
2022/08/14 12:18:31;;;;;;;8.10;7.63;;;;;;;;;;4970588;28;20459;-89
2022/08/14 12:20:57;;;;;;;7.07;6.77;;;;;;;;;;4955930;28;20457;-89
2022/08/14 12:23:24;;;;;;;7.27;6.87;;;;;;;;;;4972889;28;20452;-89
2022/08/14 12:25:50;;;;;;;7.03;6.83;;;;;;;;;;4975158;28;20436;-90
2022/08/14 12:28:16;;;;;;;6.57;6.27;;;;;;;;;;4957075;28;20476;-90
2022/08/14 12:30:44;;;;;;;7.23;6.93;;;;;;;;;;4959745;28;20413;-90
2022/08/14 12:33:27;;;;;;;6.60;6.50;;;;;;;;;;4972789;28;20429;-89
2022/08/14 12:35:54;;;;;;;6.90;6.57;;;;;;;;;;4974864;28;20409;-90
2022/08/14 12:38:31;;;;;;;6.13;5.93;;;;;;;;;;4957016;28;20436;-89
2022/08/14 12:40:57;;;;;;;7.40;7.00;;;;;;;;;;4959325;28;20405;-91
2022/08/14 12:43:24;;;;;;;6.07;5.87;;;;;;;;;;4964231;28;21129;-89
2022/08/14 12:45:53;;;;;;;6.40;6.20;;;;;;;;;;4977747;28;20409;-89
2022/08/14 12:48:19;;;;;;;6.73;6.30;;;;;;;;;;4965310;28;20476;-89
2022/08/14 12:50:45;;;;;;;6.07;5.97;;;;;;;;;;4972664;28;20520;-90
2022/08/14 12:53:12;;;;;;;5.87;5.47;;;;;;;;;;4956576;28;20414;-89
2022/08/14 12:55:38;;;;;;;6.03;5.53;;;;;;;;;;4962294;28;20441;-88
2022/08/14 12:58:05;;;;;;;7.00;6.30;;;;;;;;;;4994604;28;20407;-91
2022/08/14 13:00:33;;;;;;;5.73;5.63;;;;;;;;;;4981996;28;20449;-90
2022/08/14 13:02:59;;;;;;;6.33;6.07;;;;;;;;;;4967698;28;20421;-90
2022/08/14 13:05:30;;;;;;;6.60;6.10;;;;;;;;;;4963826;28;20564;-89
2022/08/14 13:07:56;;;;;;;5.77;5.17;;;;;;;;;;4971013;28;20493;-90
2022/08/14 13:10:23;;;;;;;5.47;5.20;;;;;;;;;;4988313;28;20445;-90
2022/08/14 13:12:50;;;;;;;6.00;5.90;;;;;;;;;;4969269;28;20520;-90
2022/08/14 13:15:17;;;;;;;5.90;5.80;;;;;;;;;;4982241;28;20444;-88
2022/08/14 13:17:48;;;;;;;6.10;5.90;;;;;;;;;;4967052;28;20436;-89
2022/08/14 13:20:16;;;;;;;6.57;6.00;;;;;;;;;;4961443;28;20448;-90
2022/08/14 13:22:43;;;;;;;5.33;5.23;;;;;;;;;;4978433;28;20436;-91
2022/08/14 13:25:17;;;;;;;6.33;6.10;;;;;;;;;;4964869;28;20464;-91
2022/08/14 13:27:47;;;;;;;5.93;5.83;;;;;;;;;;4980639;28;20527;-90
2022/08/14 13:30:14;;;;;;;5.73;5.63;;;;;;;;;;4959918;28;21277;-89
2022/08/14 13:32:43;;;;;;;6.07;5.97;;;;;;;;;;4962771;28;20438;-89
2022/08/14 13:35:09;;;;;;;6.00;5.87;;;;;;;;;;4961644;28;20452;-89
2022/08/14 13:37:36;;;;;;;6.07;5.70;;;;;;;;;;4962309;28;20492;-87
2022/08/14 13:40:04;;;;;;;6.20;6.10;;;;;;;;;;4958867;28;20551;-89
2022/08/14 13:42:30;;;;;;;6.93;6.73;;;;;;;;;;4962885;28;20465;-89
2022/08/14 13:44:57;;;;;;;6.00;5.90;;;;;;;;;;4955611;28;20444;-88
2022/08/14 13:47:28;;;;;;;6.67;6.47;;;;;;;;;;4967640;28;20528;-87
2022/08/14 13:49:55;;;;;;;6.13;5.93;;;;;;;;;;4954375;28;20476;-87
2022/08/14 13:52:21;;;;;;;6.07;5.78;;;;;;;;;;4274583;28;10001742;-88
2022/08/14 13:54:48;;;;;;;8.82;8.32;;;;;;;;;;4979670;28;20834;-89
2022/08/14 13:57:18;;;;;;;5.93;5.83;;;;;;;;;;4960923;28;20656;-88
2022/08/14 13:59:46;;;;;;;5.83;5.67;;;;;;;;;;4973923;28;21153;-89
2022/08/14 14:02:12;;;;;;;7.50;7.30;;;;;;;;;;4964803;28;20434;-89
2022/08/14 14:04:39;;;;;;;6.20;6.00;;;;;;;;;;4954840;28;20456;-86
2022/08/14 14:07:10;;;;;;;6.63;6.30;;;;;;;;;;4963546;28;20464;-87
2022/08/14 14:09:38;;;;;;;6.60;6.50;;;;;;;;;;4951613;28;20517;-89
2022/08/14 14:12:07;;;;;;;6.97;6.77;;;;;;;;;;4967752;28;20467;-88
2022/08/14 14:14:34;;;;;;;8.17;7.40;;;;;;;;;;4954576;28;20452;-88
2022/08/14 14:17:00;;;;;;;6.65;6.45;;;;;;;;;;4967708;28;20408;-89
2022/08/14 14:19:29;;;;;;;6.40;6.13;;;;;;;;;;4961033;28;20192;-87
2022/08/14 14:21:56;;;;;;;5.90;5.80;;;;;;;;;;4960640;28;20441;-88
2022/08/14 14:24:22;;;;;;;6.00;5.80;;;;;;;;;;4951122;28;20784;-87
2022/08/14 14:26:49;;;;;;;10.27;6.20;;;;;;;;;;4953555;28;20453;-88
2022/08/14 14:29:17;;;;;;;6.17;5.97;;;;;;;;;;4954181;28;20481;-88
2022/08/14 14:32:08;;;;;;;6.50;6.10;;;;;;;;;;4957600;28;20464;-88
2022/08/14 14:34:36;;;;;;;6.53;6.40;;;;;;;;;;4963688;28;20449;-89
2022/08/14 14:37:03;;;;;;;6.83;6.63;;;;;;;;;;4962972;28;20426;-87
2022/08/14 14:39:30;;;;;;;7.27;7.07;;;;;;;;;;4973365;28;20453;-88
2022/08/14 14:42:00;;;;;;;7.00;6.80;;;;;;;;;;4953063;28;20437;-88
2022/08/14 14:44:32;;;;;;;7.30;7.10;;;;;;;;;;4957071;28;20457;-88
2022/08/14 14:46:59;;;;;;;6.80;6.70;;;;;;;;;;4947841;28;20947;-86
2022/08/14 14:49:34;;;;;;;7.47;7.13;;;;;;;;;;4981571;28;20459;-88
2022/08/14 14:52:04;;;;;;;7.63;7.30;;;;;;;;;;4964327;28;20437;-88
2022/08/14 14:54:31;;;;;;;7.30;7.10;;;;;;;;;;4959101;28;20512;-88
2022/08/14 14:56:58;;;;;;;6.87;6.67;;;;;;;;;;4956725;28;20465;-88
2022/08/14 14:59:25;;;;;;;8.57;7.93;;;;;;;;;;4971149;28;20441;-89
2022/08/14 15:01:56;;;;;;;11.20;10.47;;;;;;;;;;4957972;28;20437;-89
2022/08/14 15:04:37;;;;;;;9.53;9.03;;;;;;;;;;4956216;28;20803;-87